sensor_id;sensor_type;location;lat;lon;timestamp;temperature;humidity
46217;DHT22;47258;59.424;13.482;2022-11-20T00:01:29;0.90;99.90
46217;DHT22;47258;59.424;13.482;2022-11-20T00:03:57;1.00;99.90
46217;DHT22;47258;59.424;13.482;2022-11-20T00:06:26;0.90;99.90
46217;DHT22;47258;59.424;13.482;2022-11-20T00:08:54;0.90;99.90
46217;DHT22;47258;59.424;13.482;2022-11-20T00:11:24;0.90;99.90
46217;DHT22;47258;59.424;13.482;2022-11-20T00:13:53;0.90;99.90
46217;DHT22;47258;59.424;13.482;2022-11-20T00:16:21;0.90;99.90
46217;DHT22;47258;59.424;13.482;2022-11-20T00:18:49;0.90;99.90
46217;DHT22;47258;59.424;13.482;2022-11-20T00:21:17;0.90;99.90
46217;DHT22;47258;59.424;13.482;2022-11-20T00:23:44;0.90;99.90
46217;DHT22;47258;59.424;13.482;2022-11-20T00:26:13;0.90;99.90
46217;DHT22;47258;59.424;13.482;2022-11-20T00:28:42;0.90;99.90
46217;DHT22;47258;59.424;13.482;2022-11-20T00:31:11;0.90;99.90
46217;DHT22;47258;59.424;13.482;2022-11-20T00:33:38;0.90;99.90
46217;DHT22;47258;59.424;13.482;2022-11-20T00:36:08;0.90;99.90
46217;DHT22;47258;59.424;13.482;2022-11-20T00:38:35;0.90;99.90
46217;DHT22;47258;59.424;13.482;2022-11-20T00:41:04;0.80;99.90
46217;DHT22;47258;59.424;13.482;2022-11-20T00:43:32;0.80;99.90
46217;DHT22;47258;59.424;13.482;2022-11-20T00:46:01;0.80;99.90
46217;DHT22;47258;59.424;13.482;2022-11-20T00:48:29;0.80;99.90
46217;DHT22;47258;59.424;13.482;2022-11-20T00:50:56;0.80;99.90
46217;DHT22;47258;59.424;13.482;2022-11-20T00:53:24;0.70;99.90
46217;DHT22;47258;59.424;13.482;2022-11-20T00:55:55;0.80;99.90
46217;DHT22;47258;59.424;13.482;2022-11-20T00:58:22;0.70;99.90
46217;DHT22;47258;59.424;13.482;2022-11-20T01:00:50;0.70;99.90
46217;DHT22;47258;59.424;13.482;2022-11-20T01:03:18;0.70;99.90
46217;DHT22;47258;59.424;13.482;2022-11-20T01:05:45;0.60;99.90
46217;DHT22;47258;59.424;13.482;2022-11-20T01:08:12;0.60;99.90
46217;DHT22;47258;59.424;13.482;2022-11-20T01:10:39;0.50;99.90
46217;DHT22;47258;59.424;13.482;2022-11-20T01:13:06;0.50;99.90
46217;DHT22;47258;59.424;13.482;2022-11-20T01:15:50;0.50;99.90
46217;DHT22;47258;59.424;13.482;2022-11-20T01:18:18;0.50;99.90
46217;DHT22;47258;59.424;13.482;2022-11-20T01:20:45;0.40;99.90
46217;DHT22;47258;59.424;13.482;2022-11-20T01:23:12;0.40;99.90
46217;DHT22;47258;59.424;13.482;2022-11-20T01:25:39;0.40;99.90
46217;DHT22;47258;59.424;13.482;2022-11-20T01:28:06;0.30;99.90
46217;DHT22;47258;59.424;13.482;2022-11-20T01:30:33;0.30;99.90
46217;DHT22;47258;59.424;13.482;2022-11-20T01:33:00;0.30;99.90
46217;DHT22;47258;59.424;13.482;2022-11-20T01:35:28;0.20;99.90
46217;DHT22;47258;59.424;13.482;2022-11-20T01:37:55;0.20;99.90
46217;DHT22;47258;59.424;13.482;2022-11-20T01:40:22;0.20;99.90
46217;DHT22;47258;59.424;13.482;2022-11-20T01:43:06;0.10;99.90
46217;DHT22;47258;59.424;13.482;2022-11-20T01:46:03;0.10;99.90
46217;DHT22;47258;59.424;13.482;2022-11-20T01:48:35;0.10;99.90
46217;DHT22;47258;59.424;13.482;2022-11-20T01:51:10;0.00;99.90
46217;DHT22;47258;59.424;13.482;2022-11-20T01:53:37;0.00;99.90
46217;DHT22;47258;59.424;13.482;2022-11-20T01:56:09;0.00;99.90
46217;DHT22;47258;59.424;13.482;2022-11-20T01:58:39;0.00;99.90
46217;DHT22;47258;59.424;13.482;2022-11-20T02:01:08;0.00;99.90
46217;DHT22;47258;59.424;13.482;2022-11-20T02:03:35;0.00;99.90
46217;DHT22;47258;59.424;13.482;2022-11-20T02:06:10;-0.10;99.90
46217;DHT22;47258;59.424;13.482;2022-11-20T02:08:38;0.00;99.90
46217;DHT22;47258;59.424;13.482;2022-11-20T02:11:06;0.00;99.90
46217;DHT22;47258;59.424;13.482;2022-11-20T02:13:33;0.00;99.90
46217;DHT22;47258;59.424;13.482;2022-11-20T02:16:11;0.00;99.90
46217;DHT22;47258;59.424;13.482;2022-11-20T02:18:40;0.00;99.90
46217;DHT22;47258;59.424;13.482;2022-11-20T02:21:15;0.00;99.90
46217;DHT22;47258;59.424;13.482;2022-11-20T02:24:00;0.00;99.90
46217;DHT22;47258;59.424;13.482;2022-11-20T02:26:28;0.00;99.90
46217;DHT22;47258;59.424;13.482;2022-11-20T02:28:56;0.00;99.90
46217;DHT22;47258;59.424;13.482;2022-11-20T02:31:23;0.00;99.90
46217;DHT22;47258;59.424;13.482;2022-11-20T02:33:54;-0.10;99.90
46217;DHT22;47258;59.424;13.482;2022-11-20T02:36:22;-0.10;99.90
46217;DHT22;47258;59.424;13.482;2022-11-20T02:38:50;-0.10;99.90
46217;DHT22;47258;59.424;13.482;2022-11-20T02:41:18;-0.10;99.90
46217;DHT22;47258;59.424;13.482;2022-11-20T02:43:45;-0.10;99.90
46217;DHT22;47258;59.424;13.482;2022-11-20T02:46:12;-0.10;99.90
46217;DHT22;47258;59.424;13.482;2022-11-20T02:48:39;-0.10;99.90
46217;DHT22;47258;59.424;13.482;2022-11-20T02:51:06;-0.20;99.90
46217;DHT22;47258;59.424;13.482;2022-11-20T02:53:33;-0.20;99.90
46217;DHT22;47258;59.424;13.482;2022-11-20T02:55:59;-0.20;99.90
46217;DHT22;47258;59.424;13.482;2022-11-20T02:58:28;-0.20;99.90
46217;DHT22;47258;59.424;13.482;2022-11-20T03:00:55;-0.20;99.90
46217;DHT22;47258;59.424;13.482;2022-11-20T03:03:21;-0.20;99.90
46217;DHT22;47258;59.424;13.482;2022-11-20T03:05:48;-0.20;99.90
46217;DHT22;47258;59.424;13.482;2022-11-20T03:08:15;-0.20;99.90
46217;DHT22;47258;59.424;13.482;2022-11-20T03:10:42;-0.20;99.90
46217;DHT22;47258;59.424;13.482;2022-11-20T03:13:09;-0.20;99.90
46217;DHT22;47258;59.424;13.482;2022-11-20T03:15:38;-0.20;99.90
46217;DHT22;47258;59.424;13.482;2022-11-20T03:18:04;-0.20;99.90
46217;DHT22;47258;59.424;13.482;2022-11-20T03:20:32;-0.20;99.90
46217;DHT22;47258;59.424;13.482;2022-11-20T03:22:59;-0.10;99.90
46217;DHT22;47258;59.424;13.482;2022-11-20T03:25:26;-0.10;99.90
46217;DHT22;47258;59.424;13.482;2022-11-20T03:27:53;-0.10;99.90
46217;DHT22;47258;59.424;13.482;2022-11-20T03:30:21;-0.20;99.90
46217;DHT22;47258;59.424;13.482;2022-11-20T03:32:52;-0.10;99.90
46217;DHT22;47258;59.424;13.482;2022-11-20T03:35:20;-0.10;99.90
46217;DHT22;47258;59.424;13.482;2022-11-20T03:37:47;-0.10;99.90
46217;DHT22;47258;59.424;13.482;2022-11-20T03:40:14;-0.10;99.90
46217;DHT22;47258;59.424;13.482;2022-11-20T03:42:41;-0.10;99.90
46217;DHT22;47258;59.424;13.482;2022-11-20T03:45:14;-0.10;99.90
46217;DHT22;47258;59.424;13.482;2022-11-20T03:47:42;0.00;99.90
46217;DHT22;47258;59.424;13.482;2022-11-20T03:50:12;0.00;99.90
46217;DHT22;47258;59.424;13.482;2022-11-20T03:52:39;0.00;99.90
46217;DHT22;47258;59.424;13.482;2022-11-20T03:55:07;0.10;99.90
46217;DHT22;47258;59.424;13.482;2022-11-20T03:57:34;0.10;99.90
46217;DHT22;47258;59.424;13.482;2022-11-20T04:00:01;0.20;99.90
46217;DHT22;47258;59.424;13.482;2022-11-20T04:02:28;0.20;99.90
46217;DHT22;47258;59.424;13.482;2022-11-20T04:04:55;0.20;99.90
46217;DHT22;47258;59.424;13.482;2022-11-20T04:07:24;0.30;99.90
46217;DHT22;47258;59.424;13.482;2022-11-20T04:09:51;0.30;99.90
46217;DHT22;47258;59.424;13.482;2022-11-20T04:12:17;0.40;99.90
46217;DHT22;47258;59.424;13.482;2022-11-20T04:14:44;0.40;99.90
46217;DHT22;47258;59.424;13.482;2022-11-20T04:17:11;0.50;99.90
46217;DHT22;47258;59.424;13.482;2022-11-20T04:19:38;0.50;99.90
46217;DHT22;47258;59.424;13.482;2022-11-20T04:22:05;0.50;99.90
46217;DHT22;47258;59.424;13.482;2022-11-20T04:24:33;0.50;99.90
46217;DHT22;47258;59.424;13.482;2022-11-20T04:27:00;0.60;99.90
46217;DHT22;47258;59.424;13.482;2022-11-20T04:29:27;0.60;99.90
46217;DHT22;47258;59.424;13.482;2022-11-20T04:31:54;0.60;99.90
46217;DHT22;47258;59.424;13.482;2022-11-20T04:34:21;0.60;99.90
46217;DHT22;47258;59.424;13.482;2022-11-20T04:36:48;0.60;99.90
46217;DHT22;47258;59.424;13.482;2022-11-20T04:39:15;0.60;99.90
46217;DHT22;47258;59.424;13.482;2022-11-20T04:41:43;0.60;99.90
46217;DHT22;47258;59.424;13.482;2022-11-20T04:44:11;0.70;99.90
46217;DHT22;47258;59.424;13.482;2022-11-20T04:46:39;0.70;99.90
46217;DHT22;47258;59.424;13.482;2022-11-20T04:49:07;0.70;99.90
46217;DHT22;47258;59.424;13.482;2022-11-20T04:51:34;0.70;99.90
46217;DHT22;47258;59.424;13.482;2022-11-20T04:54:01;0.70;99.90
46217;DHT22;47258;59.424;13.482;2022-11-20T04:56:28;0.70;99.90
46217;DHT22;47258;59.424;13.482;2022-11-20T04:59:00;0.70;99.90
46217;DHT22;47258;59.424;13.482;2022-11-20T05:01:27;0.70;99.90
46217;DHT22;47258;59.424;13.482;2022-11-20T05:03:54;0.70;99.90
46217;DHT22;47258;59.424;13.482;2022-11-20T05:06:21;0.70;99.90
46217;DHT22;47258;59.424;13.482;2022-11-20T05:08:48;0.70;99.90
46217;DHT22;47258;59.424;13.482;2022-11-20T05:11:17;0.70;99.90
46217;DHT22;47258;59.424;13.482;2022-11-20T05:13:44;0.70;99.90
46217;DHT22;47258;59.424;13.482;2022-11-20T05:16:14;0.70;99.90
46217;DHT22;47258;59.424;13.482;2022-11-20T05:18:41;0.70;99.90
46217;DHT22;47258;59.424;13.482;2022-11-20T05:21:09;0.70;99.90
46217;DHT22;47258;59.424;13.482;2022-11-20T05:23:37;0.70;99.90
46217;DHT22;47258;59.424;13.482;2022-11-20T05:26:05;0.80;99.90
46217;DHT22;47258;59.424;13.482;2022-11-20T05:28:33;0.70;99.90
46217;DHT22;47258;59.424;13.482;2022-11-20T05:31:05;0.70;99.90
46217;DHT22;47258;59.424;13.482;2022-11-20T05:33:34;0.80;99.90
46217;DHT22;47258;59.424;13.482;2022-11-20T05:36:01;0.80;99.90
46217;DHT22;47258;59.424;13.482;2022-11-20T05:38:28;0.70;99.90
46217;DHT22;47258;59.424;13.482;2022-11-20T05:41:03;0.70;99.90
46217;DHT22;47258;59.424;13.482;2022-11-20T05:43:32;0.70;99.90
46217;DHT22;47258;59.424;13.482;2022-11-20T05:45:59;0.70;99.90
46217;DHT22;47258;59.424;13.482;2022-11-20T05:48:26;0.70;99.90
46217;DHT22;47258;59.424;13.482;2022-11-20T05:50:57;0.70;99.90
46217;DHT22;47258;59.424;13.482;2022-11-20T05:53:24;0.80;99.90
46217;DHT22;47258;59.424;13.482;2022-11-20T05:55:58;0.80;99.90
46217;DHT22;47258;59.424;13.482;2022-11-20T05:58:25;0.80;99.90
46217;DHT22;47258;59.424;13.482;2022-11-20T06:00:52;0.80;99.90
46217;DHT22;47258;59.424;13.482;2022-11-20T06:03:19;0.80;99.90
46217;DHT22;47258;59.424;13.482;2022-11-20T06:05:46;0.80;99.90
46217;DHT22;47258;59.424;13.482;2022-11-20T06:08:15;0.80;99.90
46217;DHT22;47258;59.424;13.482;2022-11-20T06:10:42;0.70;99.90
46217;DHT22;47258;59.424;13.482;2022-11-20T06:13:08;0.70;99.90
46217;DHT22;47258;59.424;13.482;2022-11-20T06:15:35;0.70;99.90
46217;DHT22;47258;59.424;13.482;2022-11-20T06:18:02;0.80;99.90
46217;DHT22;47258;59.424;13.482;2022-11-20T06:20:29;0.80;99.90
46217;DHT22;47258;59.424;13.482;2022-11-20T06:22:56;0.80;99.90
46217;DHT22;47258;59.424;13.482;2022-11-20T06:25:24;0.80;99.90
46217;DHT22;47258;59.424;13.482;2022-11-20T06:27:52;0.80;99.90
46217;DHT22;47258;59.424;13.482;2022-11-20T06:30:19;0.80;99.90
46217;DHT22;47258;59.424;13.482;2022-11-20T06:32:45;0.80;99.90
46217;DHT22;47258;59.424;13.482;2022-11-20T06:35:12;0.80;99.90
46217;DHT22;47258;59.424;13.482;2022-11-20T06:37:39;0.80;99.90
46217;DHT22;47258;59.424;13.482;2022-11-20T06:40:08;0.80;99.90
46217;DHT22;47258;59.424;13.482;2022-11-20T06:42:36;0.90;99.90
46217;DHT22;47258;59.424;13.482;2022-11-20T06:45:03;0.90;99.90
46217;DHT22;47258;59.424;13.482;2022-11-20T06:47:30;0.90;99.90
46217;DHT22;47258;59.424;13.482;2022-11-20T06:49:57;0.90;99.90
46217;DHT22;47258;59.424;13.482;2022-11-20T06:52:24;0.90;99.90
46217;DHT22;47258;59.424;13.482;2022-11-20T06:54:51;0.90;99.90
46217;DHT22;47258;59.424;13.482;2022-11-20T06:57:18;0.90;99.90
46217;DHT22;47258;59.424;13.482;2022-11-20T06:59:46;0.90;99.90
46217;DHT22;47258;59.424;13.482;2022-11-20T07:02:13;0.90;99.90
46217;DHT22;47258;59.424;13.482;2022-11-20T07:04:40;0.90;99.90
46217;DHT22;47258;59.424;13.482;2022-11-20T07:07:07;0.90;99.90
46217;DHT22;47258;59.424;13.482;2022-11-20T07:09:35;0.80;99.90
46217;DHT22;47258;59.424;13.482;2022-11-20T07:12:01;0.80;99.90
46217;DHT22;47258;59.424;13.482;2022-11-20T07:14:28;0.80;99.90
46217;DHT22;47258;59.424;13.482;2022-11-20T07:16:57;0.80;99.90
46217;DHT22;47258;59.424;13.482;2022-11-20T07:19:23;0.80;99.90
46217;DHT22;47258;59.424;13.482;2022-11-20T07:21:50;0.80;99.90
46217;DHT22;47258;59.424;13.482;2022-11-20T07:24:18;0.80;99.90
46217;DHT22;47258;59.424;13.482;2022-11-20T07:26:46;0.80;99.90
46217;DHT22;47258;59.424;13.482;2022-11-20T07:29:13;0.80;99.90
46217;DHT22;47258;59.424;13.482;2022-11-20T07:31:40;0.80;99.90
46217;DHT22;47258;59.424;13.482;2022-11-20T07:34:08;0.80;99.90
46217;DHT22;47258;59.424;13.482;2022-11-20T07:36:35;0.80;99.90
46217;DHT22;47258;59.424;13.482;2022-11-20T07:39:02;0.80;99.90
46217;DHT22;47258;59.424;13.482;2022-11-20T07:41:29;0.80;99.90
46217;DHT22;47258;59.424;13.482;2022-11-20T07:43:56;0.80;99.90
46217;DHT22;47258;59.424;13.482;2022-11-20T07:46:23;0.80;99.90
46217;DHT22;47258;59.424;13.482;2022-11-20T07:48:50;0.80;99.90
46217;DHT22;47258;59.424;13.482;2022-11-20T07:51:18;0.80;99.90
46217;DHT22;47258;59.424;13.482;2022-11-20T07:53:45;0.80;99.90
46217;DHT22;47258;59.424;13.482;2022-11-20T07:56:12;0.80;99.90
46217;DHT22;47258;59.424;13.482;2022-11-20T07:58:39;0.80;99.90
46217;DHT22;47258;59.424;13.482;2022-11-20T08:01:07;0.80;99.90
46217;DHT22;47258;59.424;13.482;2022-11-20T08:03:34;0.80;99.90
46217;DHT22;47258;59.424;13.482;2022-11-20T08:06:03;0.90;99.90
46217;DHT22;47258;59.424;13.482;2022-11-20T08:08:32;0.80;99.90
46217;DHT22;47258;59.424;13.482;2022-11-20T08:10:59;0.80;99.90
46217;DHT22;47258;59.424;13.482;2022-11-20T08:13:41;0.80;99.90
46217;DHT22;47258;59.424;13.482;2022-11-20T08:16:25;0.80;99.90
46217;DHT22;47258;59.424;13.482;2022-11-20T08:18:52;0.80;99.90
46217;DHT22;47258;59.424;13.482;2022-11-20T08:21:19;0.80;99.90
46217;DHT22;47258;59.424;13.482;2022-11-20T08:23:47;0.80;99.90
46217;DHT22;47258;59.424;13.482;2022-11-20T08:26:14;0.80;99.90
46217;DHT22;47258;59.424;13.482;2022-11-20T08:28:41;0.80;99.90
46217;DHT22;47258;59.424;13.482;2022-11-20T08:31:08;0.80;99.90
46217;DHT22;47258;59.424;13.482;2022-11-20T08:33:35;0.80;99.90
46217;DHT22;47258;59.424;13.482;2022-11-20T08:36:03;0.80;99.90
46217;DHT22;47258;59.424;13.482;2022-11-20T08:38:30;0.80;99.90
46217;DHT22;47258;59.424;13.482;2022-11-20T08:40:59;0.80;99.90
46217;DHT22;47258;59.424;13.482;2022-11-20T08:43:50;0.80;99.90
46217;DHT22;47258;59.424;13.482;2022-11-20T08:46:17;0.80;99.90
46217;DHT22;47258;59.424;13.482;2022-11-20T08:48:44;0.80;99.90
46217;DHT22;47258;59.424;13.482;2022-11-20T08:51:12;0.80;99.90
46217;DHT22;47258;59.424;13.482;2022-11-20T08:53:39;0.80;99.90
46217;DHT22;47258;59.424;13.482;2022-11-20T08:56:08;0.80;99.90
46217;DHT22;47258;59.424;13.482;2022-11-20T08:58:36;0.80;99.90
46217;DHT22;47258;59.424;13.482;2022-11-20T09:01:04;0.80;99.90
46217;DHT22;47258;59.424;13.482;2022-11-20T09:03:31;0.80;99.90
46217;DHT22;47258;59.424;13.482;2022-11-20T09:05:58;0.80;99.90
46217;DHT22;47258;59.424;13.482;2022-11-20T09:08:26;0.80;99.90
46217;DHT22;47258;59.424;13.482;2022-11-20T09:10:53;0.80;99.90
46217;DHT22;47258;59.424;13.482;2022-11-20T09:13:23;0.80;99.90
46217;DHT22;47258;59.424;13.482;2022-11-20T09:15:53;0.80;99.90
46217;DHT22;47258;59.424;13.482;2022-11-20T09:18:20;0.90;99.90
46217;DHT22;47258;59.424;13.482;2022-11-20T09:20:48;0.90;99.90
46217;DHT22;47258;59.424;13.482;2022-11-20T09:23:15;0.90;99.90
46217;DHT22;47258;59.424;13.482;2022-11-20T09:25:42;1.00;99.90
46217;DHT22;47258;59.424;13.482;2022-11-20T09:28:09;1.00;99.90
46217;DHT22;47258;59.424;13.482;2022-11-20T09:30:37;1.00;99.90
46217;DHT22;47258;59.424;13.482;2022-11-20T09:33:05;1.00;99.90
46217;DHT22;47258;59.424;13.482;2022-11-20T09:35:33;1.00;99.90
46217;DHT22;47258;59.424;13.482;2022-11-20T09:38:04;1.10;99.90
46217;DHT22;47258;59.424;13.482;2022-11-20T09:40:32;1.10;99.90
46217;DHT22;47258;59.424;13.482;2022-11-20T09:43:04;1.10;99.90
46217;DHT22;47258;59.424;13.482;2022-11-20T09:45:47;1.10;99.90
46217;DHT22;47258;59.424;13.482;2022-11-20T09:48:25;1.10;99.90
46217;DHT22;47258;59.424;13.482;2022-11-20T09:50:57;1.10;99.90
46217;DHT22;47258;59.424;13.482;2022-11-20T09:53:35;1.10;99.90
46217;DHT22;47258;59.424;13.482;2022-11-20T09:56:09;1.10;99.90
46217;DHT22;47258;59.424;13.482;2022-11-20T09:58:40;1.10;99.90
46217;DHT22;47258;59.424;13.482;2022-11-20T10:01:12;1.10;99.90
46217;DHT22;47258;59.424;13.482;2022-11-20T10:03:49;1.10;99.90
46217;DHT22;47258;59.424;13.482;2022-11-20T10:06:21;1.10;99.90
46217;DHT22;47258;59.424;13.482;2022-11-20T10:08:58;1.20;99.90
46217;DHT22;47258;59.424;13.482;2022-11-20T10:11:35;1.20;99.90
46217;DHT22;47258;59.424;13.482;2022-11-20T10:14:13;1.20;99.90
46217;DHT22;47258;59.424;13.482;2022-11-20T10:16:49;1.20;99.90
46217;DHT22;47258;59.424;13.482;2022-11-20T10:19:30;1.20;99.90
46217;DHT22;47258;59.424;13.482;2022-11-20T10:22:06;1.20;99.90
46217;DHT22;47258;59.424;13.482;2022-11-20T10:24:43;1.20;99.90
46217;DHT22;47258;59.424;13.482;2022-11-20T10:30:18;1.20;99.90
46217;DHT22;47258;59.424;13.482;2022-11-20T10:32:52;1.20;99.90
46217;DHT22;47258;59.424;13.482;2022-11-20T10:35:23;1.20;99.90
46217;DHT22;47258;59.424;13.482;2022-11-20T10:37:54;1.30;99.90
46217;DHT22;47258;59.424;13.482;2022-11-20T10:40:28;1.30;99.90
46217;DHT22;47258;59.424;13.482;2022-11-20T10:43:00;1.30;99.90
46217;DHT22;47258;59.424;13.482;2022-11-20T10:45:36;1.30;99.90
46217;DHT22;47258;59.424;13.482;2022-11-20T10:48:15;1.30;99.90
46217;DHT22;47258;59.424;13.482;2022-11-20T10:51:05;1.30;99.90
46217;DHT22;47258;59.424;13.482;2022-11-20T10:53:43;1.40;99.90
46217;DHT22;47258;59.424;13.482;2022-11-20T10:56:19;1.40;99.90
46217;DHT22;47258;59.424;13.482;2022-11-20T10:59:05;1.40;99.90
46217;DHT22;47258;59.424;13.482;2022-11-20T11:01:40;1.40;99.90
46217;DHT22;47258;59.424;13.482;2022-11-20T11:04:21;1.50;99.90
46217;DHT22;47258;59.424;13.482;2022-11-20T11:06:52;1.40;99.90
46217;DHT22;47258;59.424;13.482;2022-11-20T11:09:28;1.40;99.90
46217;DHT22;47258;59.424;13.482;2022-11-20T11:11:57;1.40;99.90
46217;DHT22;47258;59.424;13.482;2022-11-20T11:14:24;1.50;99.90
46217;DHT22;47258;59.424;13.482;2022-11-20T11:16:52;1.50;99.90
46217;DHT22;47258;59.424;13.482;2022-11-20T11:19:20;1.50;99.90
46217;DHT22;47258;59.424;13.482;2022-11-20T11:21:49;1.50;99.90
46217;DHT22;47258;59.424;13.482;2022-11-20T11:24:21;1.40;99.90
46217;DHT22;47258;59.424;13.482;2022-11-20T11:26:57;1.40;99.90
46217;DHT22;47258;59.424;13.482;2022-11-20T11:29:25;1.40;99.90
46217;DHT22;47258;59.424;13.482;2022-11-20T11:32:04;1.40;99.90
46217;DHT22;47258;59.424;13.482;2022-11-20T11:34:33;1.40;99.90
46217;DHT22;47258;59.424;13.482;2022-11-20T11:37:01;1.40;99.90
46217;DHT22;47258;59.424;13.482;2022-11-20T11:39:30;1.40;99.90
46217;DHT22;47258;59.424;13.482;2022-11-20T11:41:58;1.40;99.90
46217;DHT22;47258;59.424;13.482;2022-11-20T11:44:30;1.30;99.90
46217;DHT22;47258;59.424;13.482;2022-11-20T11:47:22;1.30;99.90
46217;DHT22;47258;59.424;13.482;2022-11-20T11:50:01;1.30;99.90
46217;DHT22;47258;59.424;13.482;2022-11-20T11:52:29;1.30;99.90
46217;DHT22;47258;59.424;13.482;2022-11-20T11:54:59;1.30;99.90
46217;DHT22;47258;59.424;13.482;2022-11-20T11:57:33;1.30;99.90
46217;DHT22;47258;59.424;13.482;2022-11-20T12:00:08;1.30;99.90
46217;DHT22;47258;59.424;13.482;2022-11-20T12:02:38;1.30;99.90
46217;DHT22;47258;59.424;13.482;2022-11-20T12:05:18;1.30;99.90
46217;DHT22;47258;59.424;13.482;2022-11-20T12:07:47;1.30;99.90
46217;DHT22;47258;59.424;13.482;2022-11-20T12:10:20;1.30;99.90
46217;DHT22;47258;59.424;13.482;2022-11-20T12:12:51;1.30;99.90
46217;DHT22;47258;59.424;13.482;2022-11-20T12:15:29;1.20;99.90
46217;DHT22;47258;59.424;13.482;2022-11-20T12:17:56;1.20;99.90
46217;DHT22;47258;59.424;13.482;2022-11-20T12:20:29;1.20;99.90
46217;DHT22;47258;59.424;13.482;2022-11-20T12:23:04;1.20;99.90
46217;DHT22;47258;59.424;13.482;2022-11-20T12:25:36;1.20;99.90
46217;DHT22;47258;59.424;13.482;2022-11-20T12:31:03;1.10;99.90
46217;DHT22;47258;59.424;13.482;2022-11-20T12:33:51;1.10;99.90
46217;DHT22;47258;59.424;13.482;2022-11-20T12:36:30;1.10;99.90
46217;DHT22;47258;59.424;13.482;2022-11-20T12:42:23;1.10;99.90
46217;DHT22;47258;59.424;13.482;2022-11-20T12:45:27;1.00;99.90
46217;DHT22;47258;59.424;13.482;2022-11-20T12:48:08;1.00;99.90
46217;DHT22;47258;59.424;13.482;2022-11-20T12:50:49;1.00;99.90
46217;DHT22;47258;59.424;13.482;2022-11-20T12:53:27;1.00;99.90
46217;DHT22;47258;59.424;13.482;2022-11-20T12:56:01;0.90;99.90
46217;DHT22;47258;59.424;13.482;2022-11-20T12:58:39;0.90;99.90
46217;DHT22;47258;59.424;13.482;2022-11-20T13:01:19;0.90;99.90
46217;DHT22;47258;59.424;13.482;2022-11-20T13:04:08;0.90;99.90
46217;DHT22;47258;59.424;13.482;2022-11-20T13:06:36;0.90;99.90
46217;DHT22;47258;59.424;13.482;2022-11-20T13:09:08;0.90;99.90
46217;DHT22;47258;59.424;13.482;2022-11-20T13:11:40;0.90;99.90
46217;DHT22;47258;59.424;13.482;2022-11-20T13:14:14;0.90;99.90
46217;DHT22;47258;59.424;13.482;2022-11-20T13:16:49;0.80;99.90
46217;DHT22;47258;59.424;13.482;2022-11-20T13:19:18;0.80;99.90
46217;DHT22;47258;59.424;13.482;2022-11-20T13:21:46;0.80;99.90
46217;DHT22;47258;59.424;13.482;2022-11-20T13:24:24;0.70;99.90
46217;DHT22;47258;59.424;13.482;2022-11-20T13:27:04;0.70;99.90
46217;DHT22;47258;59.424;13.482;2022-11-20T13:29:31;0.70;99.90
46217;DHT22;47258;59.424;13.482;2022-11-20T13:32:06;0.70;99.90
46217;DHT22;47258;59.424;13.482;2022-11-20T13:34:34;0.70;99.90
46217;DHT22;47258;59.424;13.482;2022-11-20T13:37:02;0.70;99.90
46217;DHT22;47258;59.424;13.482;2022-11-20T13:39:32;0.70;99.90
46217;DHT22;47258;59.424;13.482;2022-11-20T13:42:01;0.70;99.90
46217;DHT22;47258;59.424;13.482;2022-11-20T13:44:33;0.70;99.90
46217;DHT22;47258;59.424;13.482;2022-11-20T13:47:03;0.60;99.90
46217;DHT22;47258;59.424;13.482;2022-11-20T13:49:32;0.60;99.90
46217;DHT22;47258;59.424;13.482;2022-11-20T13:52:21;0.60;99.90
46217;DHT22;47258;59.424;13.482;2022-11-20T13:55:04;0.50;99.90
46217;DHT22;47258;59.424;13.482;2022-11-20T13:58:05;0.50;99.90
46217;DHT22;47258;59.424;13.482;2022-11-20T14:00:44;0.50;99.90
46217;DHT22;47258;59.424;13.482;2022-11-20T14:03:17;0.40;99.90
46217;DHT22;47258;59.424;13.482;2022-11-20T14:05:51;0.40;99.90
46217;DHT22;47258;59.424;13.482;2022-11-20T14:08:27;0.40;99.90
46217;DHT22;47258;59.424;13.482;2022-11-20T14:11:14;0.40;99.90
46217;DHT22;47258;59.424;13.482;2022-11-20T14:13:56;0.40;99.90
46217;DHT22;47258;59.424;13.482;2022-11-20T14:16:24;0.30;99.90
46217;DHT22;47258;59.424;13.482;2022-11-20T14:18:52;0.30;99.90
46217;DHT22;47258;59.424;13.482;2022-11-20T14:21:25;0.30;99.90
46217;DHT22;47258;59.424;13.482;2022-11-20T14:23:53;0.30;99.90
46217;DHT22;47258;59.424;13.482;2022-11-20T14:26:22;0.30;99.90
46217;DHT22;47258;59.424;13.482;2022-11-20T14:28:50;0.30;99.90
46217;DHT22;47258;59.424;13.482;2022-11-20T14:31:23;0.30;99.90
46217;DHT22;47258;59.424;13.482;2022-11-20T14:33:51;0.20;99.90
46217;DHT22;47258;59.424;13.482;2022-11-20T14:36:20;0.20;99.90
46217;DHT22;47258;59.424;13.482;2022-11-20T14:38:49;0.20;99.90
46217;DHT22;47258;59.424;13.482;2022-11-20T14:41:18;0.20;99.90
46217;DHT22;47258;59.424;13.482;2022-11-20T14:43:50;0.20;99.90
46217;DHT22;47258;59.424;13.482;2022-11-20T14:46:18;0.20;99.90
46217;DHT22;47258;59.424;13.482;2022-11-20T14:48:46;0.20;99.90
46217;DHT22;47258;59.424;13.482;2022-11-20T14:51:30;0.20;99.90
46217;DHT22;47258;59.424;13.482;2022-11-20T14:54:11;0.10;99.90
46217;DHT22;47258;59.424;13.482;2022-11-20T14:56:39;0.20;99.90
46217;DHT22;47258;59.424;13.482;2022-11-20T14:59:08;0.10;99.90
46217;DHT22;47258;59.424;13.482;2022-11-20T15:01:35;0.10;99.90
46217;DHT22;47258;59.424;13.482;2022-11-20T15:04:06;0.10;99.90
46217;DHT22;47258;59.424;13.482;2022-11-20T15:06:35;0.10;99.90
46217;DHT22;47258;59.424;13.482;2022-11-20T15:09:02;0.20;99.90
46217;DHT22;47258;59.424;13.482;2022-11-20T15:11:32;0.10;99.90
46217;DHT22;47258;59.424;13.482;2022-11-20T15:14:03;0.20;99.90
46217;DHT22;47258;59.424;13.482;2022-11-20T15:16:32;0.10;99.90
46217;DHT22;47258;59.424;13.482;2022-11-20T15:19:00;0.10;99.90
46217;DHT22;47258;59.424;13.482;2022-11-20T15:21:28;0.10;99.90
46217;DHT22;47258;59.424;13.482;2022-11-20T15:23:56;0.10;99.90
46217;DHT22;47258;59.424;13.482;2022-11-20T15:26:25;0.10;99.90
46217;DHT22;47258;59.424;13.482;2022-11-20T15:28:54;0.00;99.90
46217;DHT22;47258;59.424;13.482;2022-11-20T15:31:22;0.00;99.90
46217;DHT22;47258;59.424;13.482;2022-11-20T15:33:51;0.00;99.90
46217;DHT22;47258;59.424;13.482;2022-11-20T15:36:18;0.00;99.90
46217;DHT22;47258;59.424;13.482;2022-11-20T15:38:45;-0.10;99.90
46217;DHT22;47258;59.424;13.482;2022-11-20T15:41:12;-0.10;99.90
46217;DHT22;47258;59.424;13.482;2022-11-20T15:43:39;-0.10;99.90
46217;DHT22;47258;59.424;13.482;2022-11-20T15:46:09;-0.10;99.90
46217;DHT22;47258;59.424;13.482;2022-11-20T15:48:39;-0.10;99.90
46217;DHT22;47258;59.424;13.482;2022-11-20T15:51:19;-0.20;99.90
46217;DHT22;47258;59.424;13.482;2022-11-20T15:53:47;-0.10;99.90
46217;DHT22;47258;59.424;13.482;2022-11-20T15:56:15;-0.20;99.90
46217;DHT22;47258;59.424;13.482;2022-11-20T15:58:42;-0.20;99.90